Cuaca Aktual Bandara Mali

Waktu Pengamatan : 2022-05-17 04:00:00 WITA


NIGHT-CLEAR-CLOUDY
Cerah - berawan
Suhu Udara
24 °C
Titik Embun
24 °C

Tekanan Udara 1010 hPa
Jarak Pandang 8.0 km

Angin
Tenang
METAR Terkini : METAR WATM 162030Z 00000KT 8000 FEW020 24/24 Q1010|NOSIG=